Main page
METAR-TAF:

METAR-TAF

Airports :

Tuscola Area Airport

Caro, Michigan, United States

latitude: 43-27-31N, longitude: 083-26-43W, elevation: 214 m

Current weather observation

The report was made 21 minutes ago, at 11:55 UTC
Wind 6 kt from the North
Temperature 18°C
Humidity 100%
Pressure 1026 hPa
Visibility: 16.1 km
Overcast at a height of 500 ft
rain

METAR: KCFS 201155Z AUTO 36006KT 10SM RA OVC005 18/18 A3031 RMK AO2 T01820180 10228 20182

Time: 08:16 (12:16 UTC)


TAF: missing

Weather observations and forecasts of more than 4000 airports (METAR and TAF reports).

The available stations are represented by yellow and red dots on the map.

Hover mouse over dot to see the name of the station.

Then click to see weather observations and forecasts.

To change the map : click on the green buttons with a black cross to zoom in, on the green button with a dash to zoom out, or on the green arrows for adjacent maps.


METAR-TAF: